Time;durP1;ratioP1;P1;durP2;ratioP2;P2;SDS_P1;SDS_P2;PMS_P1;PMS_P2;Temp;Humidity;BMP_temperature;BMP_pressure;BME280_temperature;BME280_humidity;BME280_pressure;Samples;Min_cycle;Max_cycle;Signal;HPM_P1;HPM_P2
2023/10/25 04:06:07;;;;;;;3.45;2.58;;;;;;;15.43;100.00;98894.84;5612638;31;80753;-62
2023/10/25 04:09:09;;;;;;;4.45;3.28;;;;;;;15.43;100.00;98894.84;5585179;31;33469;-62
2023/10/25 04:12:14;;;;;;;4.82;3.35;;;;;;;15.09;100.00;98909.75;5583015;31;34268;-62
2023/10/25 04:15:17;;;;;;;6.15;4.10;;;;;;;15.00;100.00;98917.25;5583807;31;33552;-62
2023/10/25 04:18:19;;;;;;;5.57;4.07;;;;;;;14.99;100.00;98926.47;5574942;32;33753;-62
2023/10/25 04:21:21;;;;;;;5.00;3.78;;;;;;;15.01;100.00;98926.91;5563869;32;33995;-62
2023/10/25 04:24:23;;;;;;;5.93;3.90;;;;;;;14.99;100.00;98934.56;5580322;32;33576;-62
2023/10/25 04:27:26;;;;;;;4.43;3.60;;;;;;;14.95;100.00;98942.56;5583033;32;33657;-62
2023/10/25 04:30:28;;;;;;;6.95;4.15;;;;;;;14.99;100.00;98938.03;5583561;32;33663;-62
2023/10/25 04:33:31;;;;;;;5.28;3.67;;;;;;;14.92;100.00;98951.34;5583170;32;33534;-62
2023/10/25 04:36:33;;;;;;;4.68;3.83;;;;;;;14.89;100.00;98949.31;5582871;31;33617;-62
2023/10/25 04:39:35;;;;;;;5.10;3.95;;;;;;;14.83;100.00;98955.31;5566782;32;33643;-62
2023/10/25 04:42:37;;;;;;;6.97;4.53;;;;;;;14.82;100.00;98969.94;5563455;32;33398;-62
2023/10/25 04:45:40;;;;;;;5.70;4.47;;;;;;;14.85;100.00;98966.56;5563486;32;34299;-62
2023/10/25 04:48:42;;;;;;;8.18;5.65;;;;;;;14.88;100.00;98969.34;5572710;32;34388;-62
2023/10/25 04:51:47;;;;;;;8.15;5.90;;;;;;;14.86;100.00;98977.00;5582897;31;33671;-63
2023/10/25 04:54:49;;;;;;;8.90;6.55;;;;;;;14.85;100.00;98969.25;5583053;32;33679;-62
2023/10/25 04:57:54;;;;;;;7.18;6.18;;;;;;;14.79;100.00;98990.28;5582971;31;33612;-62
2023/10/25 05:00:56;;;;;;;8.43;6.37;;;;;;;14.80;100.00;98987.25;5582291;31;33200;-62
2023/10/25 05:03:58;;;;;;;8.20;6.70;;;;;;;14.83;100.00;98996.56;5578812;31;34310;-62
2023/10/25 05:07:01;;;;;;;7.50;6.10;;;;;;;14.78;100.00;99000.28;5577453;31;33150;-62
2023/10/25 05:10:12;;;;;;;7.62;6.32;;;;;;;14.73;100.00;99011.31;5570034;31;33588;-62
2023/10/25 05:13:16;;;;;;;7.82;6.53;;;;;;;14.68;100.00;99008.09;5574614;31;33678;-62
2023/10/25 05:16:18;;;;;;;7.70;6.12;;;;;;;14.76;100.00;99018.72;5556298;32;34378;-62
2023/10/25 05:19:21;;;;;;;9.73;6.60;;;;;;;14.78;100.00;99027.25;5559872;32;34322;-62
2023/10/25 05:22:27;;;;;;;7.53;6.12;;;;;;;14.76;100.00;99024.13;5555461;32;36025;-61
2023/10/25 05:25:30;;;;;;;8.30;6.55;;;;;;;14.90;100.00;99022.97;5559095;32;35173;-63
2023/10/25 05:28:33;;;;;;;7.37;6.50;;;;;;;14.85;100.00;99036.69;5556122;32;33658;-61
2023/10/25 05:31:42;;;;;;;8.32;6.25;;;;;;;14.94;100.00;99048.94;5562484;32;34162;-62
2023/10/25 05:34:46;;;;;;;8.40;6.65;;;;;;;14.73;100.00;99051.00;5560610;32;34298;-62
2023/10/25 05:37:48;;;;;;;7.68;6.20;;;;;;;14.76;100.00;99067.28;5565003;32;33796;-62
2023/10/25 05:40:53;;;;;;;7.85;6.50;;;;;;;14.82;100.00;99062.44;5555347;32;33562;-62
2023/10/25 05:44:15;;;;;;;7.72;6.32;;;;;;;14.77;100.00;99079.66;5560863;32;33378;-61
2023/10/25 05:47:18;;;;;;;9.80;6.32;;;;;;;14.87;100.00;99094.59;5556755;32;33480;-61
2023/10/25 05:50:21;;;;;;;8.25;6.10;;;;;;;14.85;100.00;99099.53;5559197;32;33515;-62
2023/10/25 05:53:25;;;;;;;8.50;6.65;;;;;;;14.93;100.00;99114.03;5561620;31;33531;-61
2023/10/25 05:56:28;;;;;;;7.93;6.35;;;;;;;15.02;100.00;99112.00;5559313;32;34452;-63
2023/10/25 05:59:31;;;;;;;7.68;6.50;;;;;;;15.06;100.00;99117.47;5559797;32;33542;-63
2023/10/25 06:02:34;;;;;;;8.40;6.15;;;;;;;15.12;100.00;99132.31;5562892;31;33363;-61
2023/10/25 06:05:37;;;;;;;8.77;5.95;;;;;;;14.95;100.00;99142.25;5558911;32;33898;-62
2023/10/25 06:08:40;;;;;;;8.07;6.65;;;;;;;15.00;100.00;99144.72;5565877;32;33365;-61
2023/10/25 06:11:43;;;;;;;7.25;6.05;;;;;;;15.00;100.00;99166.31;5560496;32;33646;-62
2023/10/25 06:14:45;;;;;;;9.18;5.80;;;;;;;14.86;100.00;99176.66;5556027;32;34309;-63
2023/10/25 06:17:47;;;;;;;8.40;6.47;;;;;;;14.87;100.00;99188.25;5560336;31;34359;-61
2023/10/25 06:20:50;;;;;;;7.30;6.25;;;;;;;15.06;100.00;99206.56;5559564;31;33581;-61
2023/10/25 06:23:53;;;;;;;9.73;5.50;;;;;;;15.10;100.00;99215.53;5560096;32;33734;-62
2023/10/25 06:26:55;;;;;;;9.98;6.50;;;;;;;14.98;100.00;99219.03;5564788;32;33234;-64
2023/10/25 06:29:57;;;;;;;8.73;6.22;;;;;;;14.98;100.00;99221.75;5564996;32;33234;-63
2023/10/25 06:33:00;;;;;;;9.65;6.43;;;;;;;15.00;100.00;99228.38;5557520;32;33660;-62
2023/10/25 06:36:04;;;;;;;6.95;5.90;;;;;;;14.86;100.00;99224.44;5563376;31;33696;-62
2023/10/25 06:39:07;;;;;;;9.50;6.55;;;;;;;14.85;100.00;99228.25;5560764;31;33897;-62
2023/10/25 06:42:11;;;;;;;6.68;5.70;;;;;;;14.87;100.00;99234.91;5551993;32;33681;-62
2023/10/25 06:45:14;;;;;;;9.43;6.50;;;;;;;14.96;100.00;99249.06;5566406;31;34250;-62
2023/10/25 06:48:17;;;;;;;9.20;6.00;;;;;;;14.93;100.00;99259.72;5558997;32;33517;-62
2023/10/25 06:51:20;;;;;;;7.87;5.43;;;;;;;14.88;100.00;99258.06;5563513;32;34398;-62
2023/10/25 06:54:24;;;;;;;11.52;6.20;;;;;;;14.92;100.00;99250.84;5561796;32;34434;-62
2023/10/25 06:57:27;;;;;;;6.43;5.35;;;;;;;15.02;100.00;99246.94;5561753;31;33507;-63
2023/10/25 07:00:30;;;;;;;8.82;5.95;;;;;;;14.98;100.00;99241.41;5570532;31;33590;-62
2023/10/25 07:03:34;;;;;;;7.35;5.70;;;;;;;15.08;100.00;99244.78;5569446;31;33629;-62
2023/10/25 07:06:39;;;;;;;8.18;5.35;;;;;;;15.20;100.00;99242.09;5554945;32;33692;-62
2023/10/25 07:09:41;;;;;;;10.43;5.70;;;;;;;15.27;100.00;99234.22;5561088;31;33376;-62
2023/10/25 07:12:44;;;;;;;6.47;5.40;;;;;;;15.48;100.00;99224.03;5560860;31;33017;-62
2023/10/25 07:15:47;;;;;;;6.32;5.20;;;;;;;15.41;100.00;99236.56;5558077;32;33595;-62
2023/10/25 07:18:49;;;;;;;7.22;5.28;;;;;;;15.34;97.74;99250.62;5559843;32;34472;-62
2023/10/25 07:21:52;;;;;;;8.60;4.95;;;;;;;15.34;100.00;99253.34;5567386;31;34507;-62
2023/10/25 07:24:58;;;;;;;6.85;5.20;;;;;;;15.33;100.00;99243.66;5557987;31;33562;-62
2023/10/25 07:28:00;;;;;;;7.12;5.05;;;;;;;15.50;100.00;99246.13;5572719;31;33685;-62
2023/10/25 07:31:03;;;;;;;5.55;4.62;;;;;;;15.58;100.00;99246.31;5560465;31;34188;-62
2023/10/25 07:34:05;;;;;;;6.35;5.30;;;;;;;15.54;98.26;99240.81;5562258;31;34248;-65
2023/10/25 07:37:08;;;;;;;7.25;5.18;;;;;;;15.59;100.00;99245.19;5574847;31;33203;-62
2023/10/25 07:40:11;;;;;;;6.35;4.85;;;;;;;15.65;95.82;99250.00;5573894;31;33730;-62
2023/10/25 07:43:13;;;;;;;6.37;4.93;;;;;;;15.66;100.00;99248.09;5558757;32;34300;-62
2023/10/25 07:46:16;;;;;;;6.28;4.43;;;;;;;15.76;100.00;99258.47;5559568;32;34369;-61
2023/10/25 07:49:18;;;;;;;7.05;5.18;;;;;;;15.95;93.12;99271.34;5560969;31;34412;-61
2023/10/25 07:52:23;;;;;;;8.02;4.93;;;;;;;15.93;89.97;99281.75;5565854;31;33564;-62
2023/10/25 07:55:25;;;;;;;5.82;4.35;;;;;;;15.86;96.11;99301.25;5562002;31;33281;-62
2023/10/25 07:58:30;;;;;;;7.25;5.03;;;;;;;16.10;100.00;99303.06;5560643;31;33749;-62
2023/10/25 08:01:33;;;;;;;5.75;3.90;;;;;;;16.07;100.00;99301.06;5559969;31;34288;-62
2023/10/25 08:04:36;;;;;;;6.03;4.62;;;;;;;15.94;97.73;99297.59;5562905;31;33881;-61
2023/10/25 08:07:38;;;;;;;6.53;4.93;;;;;;;15.80;94.76;99313.41;5560849;31;33521;-62
2023/10/25 08:10:41;;;;;;;6.05;4.03;;;;;;;15.75;100.00;99319.03;5560284;31;34475;-61
2023/10/25 08:13:44;;;;;;;5.35;4.25;;;;;;;15.65;97.10;99330.28;5561840;31;33652;-62
2023/10/25 08:16:47;;;;;;;5.47;4.12;;;;;;;15.67;94.18;99347.75;5561951;31;33320;-62
2023/10/25 08:19:50;;;;;;;5.75;4.20;;;;;;;15.66;93.20;99350.75;5562145;31;34361;-61
2023/10/25 08:22:55;;;;;;;5.70;3.80;;;;;;;15.71;93.28;99334.34;5559840;32;33569;-61
2023/10/25 08:26:00;;;;;;;5.90;3.60;;;;;;;15.70;95.88;99336.28;5559243;31;33964;-61
2023/10/25 08:29:03;;;;;;;;;;;;;;;15.71;95.95;99323.53;5561030;31;33590;-62
2023/10/25 08:32:05;;;;;;;4.05;3.50;;;;;;;15.79;98.14;99336.13;5558880;31;33510;-61
2023/10/25 08:35:08;;;;;;;4.43;3.53;;;;;;;15.86;95.49;99344.47;5558051;31;34348;-61
2023/10/25 08:38:10;;;;;;;4.62;3.78;;;;;;;15.83;100.00;99334.34;5559031;31;32440;-62
2023/10/25 08:41:15;;;;;;;4.40;3.45;;;;;;;15.81;90.53;99358.22;5557280;31;34012;-61
2023/10/25 08:44:17;;;;;;;4.55;3.42;;;;;;;15.89;96.64;99365.41;5557578;31;33273;-62
2023/10/25 08:47:20;;;;;;;4.15;3.30;;;;;;;15.83;98.16;99380.28;5564083;32;33949;-62
2023/10/25 08:50:22;;;;;;;6.47;3.65;;;;;;;15.88;92.31;99380.03;5552711;32;33556;-62
2023/10/25 08:53:26;;;;;;;6.40;3.65;;;;;;;15.93;95.97;99393.34;5561839;32;34452;-62
2023/10/25 08:56:28;;;;;;;4.60;3.35;;;;;;;15.82;92.32;99400.31;5557156;32;33670;-61
2023/10/25 08:59:40;;;;;;;5.00;3.95;;;;;;;15.91;94.91;99411.00;5562506;32;33469;-62
2023/10/25 09:02:45;;;;;;;10.25;5.07;;;;;;;15.93;96.24;99414.97;5561298;31;34259;-62
2023/10/25 09:06:02;;;;;;;6.55;3.90;;;;;;;15.86;92.66;99412.03;5564002;32;34242;-62
2023/10/25 09:09:07;;;;;;;5.57;3.47;;;;;;;15.84;91.92;99422.37;5563476;31;33648;-61
2023/10/25 09:12:19;;;;;;;6.10;3.97;;;;;;;15.80;90.90;99413.38;5562363;32;33758;-61
2023/10/25 09:15:29;;;;;;;5.07;3.33;;;;;;;15.76;89.50;99420.59;5555155;32;33508;-62
2023/10/25 09:18:33;;;;;;;;;;;;;;;15.80;92.43;99434.22;5567558;31;34340;-62
2023/10/25 09:21:35;;;;;;;5.30;3.20;;;;;;;15.87;93.75;99431.75;5566384;31;32467;-62
2023/10/25 09:24:46;;;;;;;4.87;3.28;;;;;;;16.00;92.87;99437.94;5568977;31;33668;-62
2023/10/25 09:27:48;;;;;;;4.68;3.62;;;;;;;16.00;90.96;99437.94;5561283;32;34064;-61
2023/10/25 09:30:51;;;;;;;6.05;3.28;;;;;;;15.95;92.49;99438.94;5557361;32;34378;-62
2023/10/25 09:33:59;;;;;;;5.12;3.08;;;;;;;16.04;89.69;99436.13;5554991;32;33697;-62
2023/10/25 09:37:04;;;;;;;5.20;3.30;;;;;;;16.10;94.45;99434.78;5555528;32;33578;-62
2023/10/25 09:40:06;;;;;;;6.57;4.30;;;;;;;16.24;99.91;99437.91;5559285;32;33652;-62
2023/10/25 09:43:15;;;;;;;5.53;3.47;;;;;;;16.24;93.24;99447.94;5560098;32;32098;-62
2023/10/25 09:46:22;;;;;;;6.12;2.95;;;;;;;16.17;90.35;99454.69;5564332;31;34441;-62
2023/10/25 09:49:29;;;;;;;5.75;2.95;;;;;;;16.17;93.36;99462.03;5559815;31;33709;-62
2023/10/25 09:52:35;;;;;;;3.62;2.83;;;;;;;16.21;96.61;99462.91;5558432;32;33604;-62
2023/10/25 09:55:45;;;;;;;4.18;2.78;;;;;;;16.12;91.92;99446.00;5563701;31;33247;-61
2023/10/25 09:58:48;;;;;;;4.60;2.90;;;;;;;16.12;89.40;99448.72;5565439;31;34293;-62
2023/10/25 10:01:52;;;;;;;3.08;2.37;;;;;;;16.15;94.41;99448.81;5562998;31;33937;-62
2023/10/25 10:05:07;;;;;;;4.22;2.60;;;;;;;16.24;88.33;99445.22;5561943;31;34047;-62
2023/10/25 10:08:13;;;;;;;2.37;2.10;;;;;;;16.39;90.93;99448.03;5560958;32;31912;-62
2023/10/25 10:11:21;;;;;;;3.90;2.35;;;;;;;16.41;89.17;99451.16;5556962;31;33647;-63
2023/10/25 10:14:38;;;;;;;3.05;2.25;;;;;;;16.33;85.69;99443.97;5557423;31;33068;-62
2023/10/25 10:17:44;;;;;;;3.20;2.05;;;;;;;16.40;87.25;99460.41;5557515;32;33754;-63
2023/10/25 10:20:59;;;;;;;2.42;1.92;;;;;;;16.46;87.27;99455.56;5556434;32;34200;-62
2023/10/25 10:24:02;;;;;;;4.37;1.90;;;;;;;16.54;86.07;99446.50;5559830;32;34393;-62
2023/10/25 10:27:04;;;;;;;3.72;2.37;;;;;;;16.66;85.37;99445.69;5559805;32;33696;-62
2023/10/25 10:30:40;;;;;;;2.33;1.98;;;;;;;16.71;88.96;99441.94;5566370;32;33365;-62
2023/10/25 10:33:47;;;;;;;4.90;2.10;;;;;;;16.66;85.30;99446.47;5537369;31;33133;-62
2023/10/25 10:37:05;;;;;;;2.33;2.05;;;;;;;16.75;82.89;99440.16;5559442;32;33335;-61
2023/10/25 10:40:07;;;;;;;2.40;1.92;;;;;;;16.83;81.38;99428.41;5564764;31;33506;-63
2023/10/25 10:43:10;;;;;;;2.20;2.00;;;;;;;16.94;82.40;99421.34;5571276;31;34341;-62
2023/10/25 10:46:12;;;;;;;3.20;1.92;;;;;;;17.00;83.00;99422.69;5567972;31;33766;-62
2023/10/25 10:49:18;;;;;;;2.67;2.28;;;;;;;17.06;82.65;99417.81;5558316;31;33708;-64
2023/10/25 10:52:20;;;;;;;5.60;2.45;;;;;;;17.04;82.28;99423.56;5558627;32;33731;-62
2023/10/25 10:55:24;;;;;;;2.15;1.95;;;;;;;17.06;81.17;99423.22;5565394;32;33715;-61
2023/10/25 10:58:29;;;;;;;2.30;2.10;;;;;;;17.05;81.37;99414.31;5558861;31;34032;-61
2023/10/25 11:01:32;;;;;;;2.37;1.93;;;;;;;17.03;81.00;99426.62;5560986;31;33600;-61
2023/10/25 11:04:34;;;;;;;2.83;2.03;;;;;;;17.03;80.95;99419.28;5561102;31;34435;-65
2023/10/25 11:07:37;;;;;;;3.30;1.80;;;;;;;17.08;81.53;99410.09;5562563;31;33591;-65
2023/10/25 11:10:40;;;;;;;2.42;1.77;;;;;;;17.08;79.92;99401.97;5565703;31;33739;-65
2023/10/25 11:13:42;;;;;;;2.62;2.00;;;;;;;16.99;80.51;99388.63;5561425;31;33308;-65
2023/10/25 11:16:45;;;;;;;4.05;2.40;;;;;;;17.07;82.72;99379.53;5564399;32;33639;-65
2023/10/25 11:19:48;;;;;;;3.25;2.00;;;;;;;17.18;81.04;99389.84;5561724;31;33889;-65
2023/10/25 11:22:50;;;;;;;2.72;1.85;;;;;;;17.24;79.86;99399.31;5556937;31;33389;-65
2023/10/25 11:25:54;;;;;;;2.15;1.80;;;;;;;17.32;82.66;99392.94;5564035;31;33670;-64
2023/10/25 11:28:57;;;;;;;3.08;2.12;;;;;;;17.32;79.92;99390.22;5565613;32;33833;-65
2023/10/25 11:32:06;;;;;;;3.15;2.05;;;;;;;17.34;76.71;99388.72;5560944;32;34396;-65
2023/10/25 11:35:23;;;;;;;1.85;1.70;;;;;;;17.45;80.01;99396.31;5562716;32;33744;-65
2023/10/25 11:38:28;;;;;;;2.00;1.80;;;;;;;17.60;79.47;99401.75;5558070;32;33426;-64
2023/10/25 11:41:32;;;;;;;6.65;2.00;;;;;;;17.65;76.66;99397.19;5553908;32;31875;-65
2023/10/25 11:44:35;;;;;;;3.78;2.17;;;;;;;17.65;78.40;99399.91;5562707;32;33616;-65
2023/10/25 11:47:38;;;;;;;2.12;1.90;;;;;;;17.64;75.24;99399.13;5562482;32;34448;-65
2023/10/25 11:50:47;;;;;;;1.90;1.75;;;;;;;17.63;75.44;99394.84;5569589;31;33605;-65
2023/10/25 11:53:49;;;;;;;2.15;1.70;;;;;;;17.67;75.01;99392.22;5569963;31;33650;-64
2023/10/25 11:56:52;;;;;;;2.12;1.83;;;;;;;17.64;76.22;99387.50;5559731;31;33287;-64
2023/10/25 11:59:54;;;;;;;2.30;1.95;;;;;;;17.60;75.40;99388.19;5568133;31;33458;-65
2023/10/25 12:02:57;;;;;;;2.03;1.80;;;;;;;17.64;78.09;99376.66;5557674;31;33767;-64
2023/10/25 12:06:00;;;;;;;2.33;1.80;;;;;;;17.62;72.81;99382.44;5557849;32;34388;-64
2023/10/25 12:09:02;;;;;;;2.37;1.70;;;;;;;17.62;73.69;99371.59;5561712;32;34430;-65
2023/10/25 12:12:05;;;;;;;1.50;1.40;;;;;;;17.65;73.18;99383.63;5557403;32;33073;-65
2023/10/25 12:15:08;;;;;;;1.87;1.70;;;;;;;17.62;70.11;99377.81;5547186;32;33793;-62
2023/10/25 12:18:10;;;;;;;2.12;1.83;;;;;;;17.61;68.65;99368.09;5547271;32;34399;-62
2023/10/25 12:21:13;;;;;;;1.90;1.75;;;;;;;17.61;69.42;99367.28;5554189;32;33240;-62
2023/10/25 12:24:15;;;;;;;2.20;1.80;;;;;;;17.58;68.82;99366.09;5585926;31;33617;-62
2023/10/25 12:27:21;;;;;;;3.30;1.70;;;;;;;17.62;71.13;99369.66;5588380;31;33817;-62
2023/10/25 12:30:24;;;;;;;3.95;1.70;;;;;;;17.68;69.28;99355.84;5560572;31;33807;-62
2023/10/25 12:33:26;;;;;;;1.70;1.60;;;;;;;17.60;69.16;99352.97;5569108;32;33647;-62
2023/10/25 12:36:28;;;;;;;1.65;1.55;;;;;;;17.61;72.66;99354.56;5568924;32;33788;-62
2023/10/25 12:39:31;;;;;;;2.17;1.62;;;;;;;17.61;71.62;99349.12;5561308;32;33357;-62
2023/10/25 12:42:34;;;;;;;2.10;1.90;;;;;;;17.69;70.00;99346.59;5551830;31;33680;-62
2023/10/25 12:45:36;;;;;;;3.28;1.80;;;;;;;17.75;70.78;99345.97;5573124;31;34989;-62
2023/10/25 12:48:40;;;;;;;2.83;1.67;;;;;;;17.72;68.95;99343.97;5576677;31;34280;-62
2023/10/25 12:51:42;;;;;;;8.02;1.80;;;;;;;17.75;69.81;99356.03;5581085;31;34309;-62
2023/10/25 12:54:44;;;;;;;2.08;1.48;;;;;;;17.89;66.90;99350.16;5583715;31;33618;-62
2023/10/25 12:57:47;;;;;;;1.77;1.50;;;;;;;17.83;68.58;99353.13;5588305;31;33622;-62
2023/10/25 13:00:49;;;;;;;1.95;1.75;;;;;;;17.82;69.19;99359.69;5573131;31;34430;-62
2023/10/25 13:03:52;;;;;;;1.98;1.60;;;;;;;17.85;72.67;99363.63;5589006;31;33749;-62
2023/10/25 13:06:54;;;;;;;1.52;1.42;;;;;;;17.80;68.88;99337.56;5582523;31;33857;-62
2023/10/25 13:09:57;;;;;;;2.20;1.60;;;;;;;17.79;69.84;99338.72;5571774;31;34336;-62
2023/10/25 13:12:59;;;;;;;1.85;1.60;;;;;;;17.84;70.34;99332.22;5573951;31;33637;-62
2023/10/25 13:16:02;;;;;;;3.72;1.90;;;;;;;17.92;69.85;99336.69;5576288;31;34417;-62
2023/10/25 13:19:05;;;;;;;2.05;1.60;;;;;;;17.83;70.72;99338.78;5568937;32;33623;-62
2023/10/25 13:22:07;;;;;;;2.90;1.70;;;;;;;17.93;72.87;99342.88;5571992;31;34326;-62
2023/10/25 13:25:10;;;;;;;2.25;1.60;;;;;;;17.90;72.75;99347.06;5575050;31;33633;-65
2023/10/25 13:28:12;;;;;;;2.72;1.52;;;;;;;17.94;73.11;99352.56;5575612;31;33803;-65
2023/10/25 13:31:15;;;;;;;2.53;1.87;;;;;;;17.93;72.90;99349.09;5568221;32;33166;-64
2023/10/25 13:34:17;;;;;;;2.55;1.52;;;;;;;17.94;78.27;99339.03;5577409;31;34357;-65
2023/10/25 13:37:20;;;;;;;4.25;1.50;;;;;;;17.96;76.09;99347.59;5565905;32;34161;-65
2023/10/25 13:40:26;;;;;;;5.37;2.00;;;;;;;17.90;76.63;99351.72;5568746;32;33701;-65
2023/10/25 13:43:28;;;;;;;1.85;1.70;;;;;;;17.92;76.85;99352.16;5559590;32;34459;-65
2023/10/25 13:46:30;;;;;;;3.00;1.60;;;;;;;17.82;74.12;99351.56;5560121;32;33713;-65
2023/10/25 13:49:33;;;;;;;1.42;1.33;;;;;;;17.82;72.99;99351.56;5559305;32;33604;-65
2023/10/25 13:52:35;;;;;;;3.25;1.77;;;;;;;17.81;70.71;99341.88;5553747;32;34301;-65
2023/10/25 13:55:38;;;;;;;3.37;1.70;;;;;;;17.86;73.10;99340.81;5557076;32;33538;-65
2023/10/25 13:58:40;;;;;;;3.92;2.00;;;;;;;18.06;80.59;99347.03;5557873;32;33362;-65
2023/10/25 14:01:43;;;;;;;4.20;1.80;;;;;;;18.04;83.28;99328.41;5557284;32;33598;-65
2023/10/25 14:04:45;;;;;;;3.42;1.60;;;;;;;18.04;79.07;99322.19;5558146;32;33766;-65
2023/10/25 14:07:47;;;;;;;1.35;1.25;;;;;;;17.98;72.61;99337.97;5556916;31;34651;-65
2023/10/25 14:10:50;;;;;;;3.92;1.67;;;;;;;17.97;70.63;99332.88;5557426;32;33368;-64
2023/10/25 14:13:52;;;;;;;2.62;1.30;;;;;;;17.97;73.27;99332.88;5567619;32;33765;-65
2023/10/25 14:16:54;;;;;;;3.55;1.60;;;;;;;17.99;72.78;99330.63;5568710;32;33647;-65
2023/10/25 14:19:57;;;;;;;5.30;1.20;;;;;;;18.07;79.21;99333.09;5569005;32;33761;-65
2023/10/25 14:22:59;;;;;;;1.30;1.20;;;;;;;18.10;75.00;99330.84;5568846;32;33734;-65
2023/10/25 14:26:05;;;;;;;4.68;1.45;;;;;;;17.93;69.91;99340.94;5568936;32;33610;-65
2023/10/25 14:29:08;;;;;;;2.12;1.25;;;;;;;17.92;74.89;99331.25;5568521;32;33670;-64
2023/10/25 14:32:10;;;;;;;2.00;1.10;;;;;;;17.89;71.39;99336.59;5568867;32;33301;-65
2023/10/25 14:35:14;;;;;;;1.42;1.33;;;;;;;17.84;71.17;99334.94;5569014;32;33779;-62
2023/10/25 14:38:16;;;;;;;1.33;1.10;;;;;;;17.87;81.66;99342.38;5568814;32;33860;-62
2023/10/25 14:41:18;;;;;;;1.62;1.20;;;;;;;17.87;72.61;99338.87;5569274;32;34163;-62
2023/10/25 14:44:20;;;;;;;1.95;1.52;;;;;;;17.86;74.42;99335.38;5549756;32;33933;-62
2023/10/25 14:47:23;;;;;;;6.43;1.48;;;;;;;17.90;90.97;99327.31;5549773;32;33676;-61
2023/10/25 14:50:25;;;;;;;2.22;1.40;;;;;;;17.86;75.52;99327.25;5549035;32;33976;-62
2023/10/25 14:53:28;;;;;;;6.28;1.50;;;;;;;17.84;79.76;99329.50;5549525;32;34364;-62
2023/10/25 14:56:31;;;;;;;2.72;1.30;;;;;;;17.80;76.75;99323.22;5549699;32;33633;-62
2023/10/25 14:59:33;;;;;;;4.37;1.70;;;;;;;17.77;76.52;99329.34;5549883;32;34375;-62
2023/10/25 15:02:36;;;;;;;4.05;1.55;;;;;;;17.75;75.80;99331.63;5549507;32;34355;-62
2023/10/25 15:05:42;;;;;;;2.28;1.70;;;;;;;17.68;78.90;99329.53;5549653;32;33680;-62
2023/10/25 15:08:44;;;;;;;3.08;2.10;;;;;;;17.62;84.08;99320.88;5549304;32;33834;-62
2023/10/25 15:11:47;;;;;;;2.12;1.67;;;;;;;17.62;89.92;99322.81;5549817;32;33086;-62
2023/10/25 15:14:49;;;;;;;3.97;2.03;;;;;;;17.54;78.06;99315.66;5558268;32;33710;-62
2023/10/25 15:17:55;;;;;;;2.60;1.85;;;;;;;17.44;87.38;99316.19;5559194;32;34439;-62
2023/10/25 15:20:58;;;;;;;2.95;2.08;;;;;;;17.38;82.68;99308.34;5558972;32;33201;-62
2023/10/25 15:24:00;;;;;;;3.40;1.85;;;;;;;17.28;85.45;99308.06;5551496;32;33712;-62
2023/10/25 15:27:03;;;;;;;2.80;2.15;;;;;;;17.27;83.20;99303.81;5549690;32;34353;-62
2023/10/25 15:30:09;;;;;;;2.60;2.03;;;;;;;17.22;82.48;99306.78;5549430;32;33630;-62
2023/10/25 15:33:13;;;;;;;;;;;;;;;17.13;100.00;99305.03;5549698;32;33308;-62
2023/10/25 15:36:15;;;;;;;5.07;2.00;;;;;;;17.02;89.72;99303.19;5552938;32;35136;-63
2023/10/25 15:39:18;;;;;;;3.50;1.98;;;;;;;17.02;86.22;99297.78;5569039;32;33909;-62
2023/10/25 15:42:20;;;;;;;3.33;2.05;;;;;;;16.99;86.61;99306.63;5568127;32;33759;-62
2023/10/25 15:45:23;;;;;;;3.92;2.20;;;;;;;17.02;85.75;99292.34;5568671;32;33695;-65
2023/10/25 15:48:25;;;;;;;6.68;2.05;;;;;;;17.00;85.89;99278.41;5568599;32;34463;-64
